• Join FlightAware (Why Join?)
  • Login
  • US Flag 
07:24AM EDT


 

Airport Tracker/Info


-or-


 

Live Flight TrackerFlight Track Log ✈ N536M ✈ 13-09-2013 ✈ KIND - KGYY

Flight Track Log - Related Links

Times and Time Zones

All times are in EDT time to prevent confusion due to time zone crossing. See the N536M flight status page for this flight to view local times or setup timezone preferences in your user account.

Time Position Orientation Groundspeed Altitude Reporting Facility
EDT Latitude Longitude Course Direction KTS MPH feet Rate Location/Type
05:13PM 39.7333 -86.2833 333° Northwest 144 166 1,300  Level Indianapolis TRACON
05:14PM 39.7833 -86.3167 333° Northwest 190 219 2,800 1,440 Climbing Indianapolis TRACON
05:14PM 39.8236 -86.3136 North 166 191 3,900 1,200 Climbing Indianapolis Center
05:16PM 39.8781 -86.3389 340° North 201 231 5,200 1,260 Climbing Indianapolis Center
05:17PM 39.9303 -86.3722 334° Northwest 207 238 6,600 840 Climbing Indianapolis Center
05:18PM 39.9839 -86.4081 333° Northwest 211 243 7,000 720 Climbing Indianapolis Center
05:19PM 40.0517 -86.4519 334° Northwest 222 255 8,100 1,080 Climbing Indianapolis Center
05:20PM 40.1067 -86.4878 334° Northwest 223 257 9,300 1,080 Climbing Indianapolis Center
05:21PM 40.1469 -86.5150 333° Northwest 210 242 10,300 1,080 Climbing Chicago Center
05:22PM 40.1867 -86.5697 314° West 210 242 11,500 720 Climbing Chicago Center
05:23PM 40.2428 -86.6328 319° Northwest 228 262 11,900 180 Climbing Chicago Center
05:24PM 40.3014 -86.6778 330° Northwest 245 282 11,900  Level Chicago Center
05:25PM 40.3611 -86.7244 329° Northwest 251 289 11,900  Level Chicago Center
05:26PM 40.4208 -86.7722 329° Northwest 253 291 11,900  Level Chicago Center
05:27PM 40.4811 -86.8183 330° Northwest 252 290 11,900  Level Chicago Center
05:28PM 40.5403 -86.8669 328° Northwest 252 290 11,900  Level Chicago Center
05:29PM 40.6119 -86.9231 329° Northwest 251 289 11,900  Level Chicago Center
05:30PM 40.6717 -86.9719 328° Northwest 252 290 11,900  Level Chicago Center
05:31PM 40.7261 -87.0144 329° Northwest 251 289 11,900  Level Chicago Center
05:32PM 40.7967 -87.0722 328° Northwest 250 288 11,900 -300 Level Chicago Center
05:33PM 40.8575 -87.1197 329° Northwest 253 291 11,300 -780 Descending Chicago Center
05:34PM 40.9194 -87.1714 328° Northwest 263 303 10,400 -660 Descending Chicago Center
05:35PM 40.9794 -87.2189 329° Northwest 253 291 10,000 -240 Descending Chicago Center
05:36PM 41.0403 -87.2636 331° Northwest 251 289 10,000 -420 Level Chicago Center
05:37PM 41.1103 -87.3225 328° Northwest 250 288 9,200 -1,440 Descending Chicago Center
05:38PM 41.1706 -87.3728 328° Northwest 255 293 7,100 -1,800 Descending Chicago Center
05:39PM 41.2294 -87.4189 330° Northwest 252 290 5,600 -1,500 Descending Chicago Center
05:40PM 41.2917 -87.3975 14° North 240 276 4,100 -780 Descending Chicago Center
05:41PM 41.3628 -87.3653 19° North 232 267 4,000 -60 Descending Chicago Center
05:42PM 41.4192 -87.3403 18° North 225 259 4,000 -480 Level Chicago Center
05:43PM 41.4733 -87.3228 14° North 217 250 3,100 -840 Descending Chicago Center
05:44PM 41.5297 -87.3239 359° North 210 242 2,300 -720 Descending Chicago Center
05:45PM 41.5833 -87.3375 349° North 200 230 1,700 -600 Descending Chicago Center
05:48PM 41.6000 -87.4000 294° West  Level FlightAware Approximate
05:55PM 41.6163 -87.4128 294° West  Level Estimated